createdAt,value
2023-05-19T00:02:28.164Z,2.67
2023-05-19T00:05:45.608Z,2.50
2023-05-19T00:12:28.737Z,2.47
2023-05-19T00:15:41.501Z,2.80
2023-05-19T00:18:54.450Z,2.40
2023-05-19T00:22:06.884Z,2.33
2023-05-19T00:25:19.628Z,2.58
2023-05-19T00:28:31.999Z,2.80
2023-05-19T00:31:45.000Z,2.70
2023-05-19T00:34:57.413Z,2.53
2023-05-19T00:38:10.110Z,2.70
2023-05-19T00:41:22.849Z,2.95
2023-05-19T00:44:37.999Z,2.92
2023-05-19T00:47:50.444Z,3.08
2023-05-19T00:51:04.700Z,3.37
2023-05-19T00:54:17.394Z,2.92
2023-05-19T00:57:30.139Z,3.00
2023-05-19T01:00:43.427Z,3.30
2023-05-19T01:03:59.189Z,3.28
2023-05-19T01:07:12.599Z,3.55
2023-05-19T01:10:25.455Z,3.75
2023-05-19T01:13:40.347Z,3.47
2023-05-19T01:17:08.195Z,2.90
2023-05-19T01:20:27.311Z,3.70
2023-05-19T01:24:09.203Z,3.47
2023-05-19T01:27:38.921Z,3.33
2023-05-19T01:30:55.663Z,3.40
2023-05-19T01:34:08.147Z,3.17
2023-05-19T01:37:20.786Z,3.53
2023-05-19T01:40:33.494Z,3.65
2023-05-19T01:43:46.590Z,3.25
2023-05-19T01:46:59.132Z,3.30
2023-05-19T01:50:11.861Z,3.35
2023-05-19T01:53:24.619Z,3.15
2023-05-19T01:57:04.377Z,3.72
2023-05-19T02:01:01.479Z,3.28
2023-05-19T02:04:39.910Z,3.20
2023-05-19T02:08:06.560Z,3.47
2023-05-19T02:11:46.260Z,3.58
2023-05-19T02:15:15.941Z,3.62
2023-05-19T02:18:29.998Z,3.65
2023-05-19T02:21:42.715Z,4.00
2023-05-19T02:24:56.568Z,3.83
2023-05-19T02:28:09.862Z,3.58
2023-05-19T02:31:22.298Z,4.25
2023-05-19T02:34:34.986Z,4.10
2023-05-19T02:37:49.982Z,3.35
2023-05-19T02:41:02.765Z,4.03
2023-05-19T02:44:15.380Z,3.75
2023-05-19T02:47:28.120Z,3.42
2023-05-19T02:50:40.618Z,3.35
2023-05-19T02:53:53.360Z,3.55
2023-05-19T02:57:06.835Z,3.95
2023-05-19T03:00:20.151Z,3.15
2023-05-19T03:03:32.971Z,3.50
2023-05-19T03:06:46.737Z,3.60
2023-05-19T03:09:59.170Z,3.45
2023-05-19T03:13:11.924Z,3.58
2023-05-19T03:16:24.759Z,3.50
2023-05-19T03:19:37.606Z,3.45
2023-05-19T03:22:50.167Z,3.45
2023-05-19T03:26:03.148Z,3.62
2023-05-19T03:29:16.533Z,3.65
2023-05-19T03:32:29.725Z,3.62
2023-05-19T03:35:42.271Z,4.00
2023-05-19T03:38:55.052Z,3.95
2023-05-19T03:42:07.576Z,4.15
2023-05-19T03:45:21.187Z,5.20
2023-05-19T03:48:34.714Z,10.88
2023-05-19T03:51:49.004Z,13.15
2023-05-19T03:55:01.936Z,9.60
2023-05-19T03:58:15.017Z,5.12
2023-05-19T04:01:27.462Z,5.00
2023-05-19T04:04:40.225Z,4.43
2023-05-19T04:07:52.640Z,4.80
2023-05-19T04:11:05.388Z,4.62
2023-05-19T04:14:17.842Z,4.43
2023-05-19T04:17:30.683Z,4.57
2023-05-19T04:20:43.178Z,4.97
2023-05-19T04:23:55.865Z,5.07
2023-05-19T04:27:12.032Z,4.32
2023-05-19T04:30:25.507Z,3.95
2023-05-19T04:33:38.988Z,4.20
2023-05-19T04:36:53.333Z,3.45
2023-05-19T04:40:09.425Z,3.75
2023-05-19T04:43:22.353Z,3.85
2023-05-19T04:46:36.251Z,3.62
2023-05-19T04:49:49.326Z,4.15
2023-05-19T04:53:01.701Z,4.00
2023-05-19T04:56:15.655Z,3.72
2023-05-19T04:59:29.260Z,4.30
2023-05-19T05:02:42.954Z,4.50
2023-05-19T05:05:56.771Z,4.60
2023-05-19T05:09:10.536Z,4.03
2023-05-19T05:12:23.330Z,4.25
2023-05-19T05:15:36.422Z,4.60
2023-05-19T05:18:50.767Z,4.90
2023-05-19T05:22:04.474Z,4.57
2023-05-19T05:25:17.870Z,5.32
2023-05-19T05:28:31.491Z,5.47
2023-05-19T05:31:44.094Z,6.15
2023-05-19T05:34:56.887Z,5.78
2023-05-19T05:38:11.840Z,5.70
2023-05-19T05:41:28.118Z,5.22
2023-05-19T05:44:41.269Z,5.12
2023-05-19T05:47:54.945Z,5.35
2023-05-19T05:51:09.339Z,5.40
2023-05-19T05:54:22.724Z,5.35
2023-05-19T05:57:36.627Z,5.03
2023-05-19T06:00:51.537Z,6.18
2023-05-19T06:04:04.552Z,5.45
2023-05-19T06:07:17.458Z,5.22
2023-05-19T06:10:30.803Z,5.50
2023-05-19T06:13:44.405Z,5.50
2023-05-19T06:16:58.675Z,4.90
2023-05-19T06:20:13.068Z,5.37
2023-05-19T06:23:29.183Z,5.60
2023-05-19T06:26:41.662Z,5.60
2023-05-19T06:29:55.841Z,5.95
2023-05-19T06:33:08.393Z,6.20
2023-05-19T06:36:21.124Z,5.97
2023-05-19T06:39:35.594Z,5.68
2023-05-19T06:42:49.028Z,6.20
2023-05-19T06:46:01.984Z,6.78
2023-05-19T06:49:15.069Z,6.35
2023-05-19T06:52:28.374Z,6.12
2023-05-19T06:55:54.387Z,6.12
2023-05-19T06:59:11.371Z,6.32
2023-05-19T07:02:24.280Z,6.72
2023-05-19T07:05:36.707Z,6.65
2023-05-19T07:08:50.370Z,6.90
2023-05-19T07:12:03.734Z,7.12
2023-05-19T07:15:16.557Z,7.75
2023-05-19T07:18:31.972Z,7.55
2023-05-19T07:21:44.884Z,7.68
2023-05-19T07:24:57.471Z,7.60
2023-05-19T07:28:10.269Z,7.57
2023-05-19T07:31:22.775Z,8.05
2023-05-19T07:34:35.716Z,7.50
2023-05-19T07:37:48.985Z,8.15
2023-05-19T07:41:02.357Z,8.07
2023-05-19T07:44:15.079Z,7.82
2023-05-19T07:47:27.825Z,7.60
2023-05-19T07:50:40.290Z,8.00
2023-05-19T07:53:53.372Z,8.27
2023-05-19T07:57:06.083Z,7.50
2023-05-19T08:00:18.957Z,7.10
2023-05-19T08:03:32.112Z,7.68
2023-05-19T08:06:44.733Z,7.85
2023-05-19T08:09:58.658Z,7.55
2023-05-19T08:13:11.065Z,6.90
2023-05-19T08:16:27.026Z,6.90
2023-05-19T08:19:39.499Z,7.72
2023-05-19T08:22:52.211Z,7.50
2023-05-19T08:26:05.289Z,7.35
2023-05-19T08:29:17.995Z,7.22
2023-05-19T08:32:31.522Z,6.80
2023-05-19T08:35:44.273Z,6.60
2023-05-19T08:38:56.672Z,7.50
2023-05-19T08:42:10.050Z,7.22
2023-05-19T08:45:23.280Z,7.15
2023-05-19T08:48:36.000Z,7.53
2023-05-19T08:52:10.045Z,6.95
2023-05-19T08:56:04.256Z,6.90
2023-05-19T08:59:16.675Z,7.82
2023-05-19T09:02:29.511Z,6.97
2023-05-19T09:05:42.030Z,6.55
2023-05-19T09:08:57.049Z,6.68
2023-05-19T09:12:12.812Z,6.55
2023-05-19T09:15:27.413Z,6.40
2023-05-19T09:18:42.642Z,6.80
2023-05-19T09:22:03.429Z,6.53
2023-05-19T09:25:25.561Z,6.57
2023-05-19T09:28:39.515Z,6.20
2023-05-19T09:32:00.512Z,6.62
2023-05-19T09:35:13.794Z,5.93
2023-05-19T09:38:29.465Z,5.53
2023-05-19T09:41:42.461Z,5.87
2023-05-19T09:45:04.111Z,5.35
2023-05-19T09:48:16.956Z,5.50
2023-05-19T09:51:29.623Z,5.93
2023-05-19T09:54:42.333Z,5.70
2023-05-19T09:57:57.788Z,5.60
2023-05-19T10:01:10.492Z,5.60
2023-05-19T10:04:27.098Z,5.10
2023-05-19T10:07:40.571Z,4.70
2023-05-19T10:10:53.279Z,5.12
2023-05-19T10:14:05.829Z,4.95
2023-05-19T10:17:18.541Z,4.90
2023-05-19T10:20:31.121Z,5.00
2023-05-19T10:23:43.976Z,4.60
2023-05-19T10:27:05.613Z,4.22
2023-05-19T10:30:21.062Z,4.32
2023-05-19T10:34:07.812Z,3.97
2023-05-19T10:37:29.089Z,4.63
2023-05-19T10:41:04.119Z,4.60
2023-05-19T10:44:21.431Z,4.70
2023-05-19T10:47:35.039Z,4.90
2023-05-19T10:50:47.961Z,4.35
2023-05-19T10:54:06.293Z,4.20
2023-05-19T10:57:19.004Z,4.32
2023-05-19T11:00:31.915Z,4.22
2023-05-19T11:03:49.181Z,4.10
2023-05-19T11:07:02.138Z,3.53
2023-05-19T11:10:15.025Z,3.40
2023-05-19T11:16:45.915Z,3.40
2023-05-19T11:19:59.445Z,3.28
2023-05-19T11:23:15.869Z,3.33
2023-05-19T11:26:46.400Z,3.17
2023-05-19T11:30:05.435Z,3.40
2023-05-19T11:33:20.711Z,3.17
2023-05-19T11:36:34.013Z,3.08
2023-05-19T11:39:47.093Z,3.10
2023-05-19T11:43:01.850Z,3.30
2023-05-19T11:46:17.539Z,3.00
2023-05-19T11:49:32.174Z,3.00
2023-05-19T11:52:45.052Z,3.00
2023-05-19T11:55:58.132Z,3.28
2023-05-19T11:59:10.904Z,3.15
2023-05-19T12:02:27.782Z,3.08
2023-05-19T12:05:45.872Z,3.03
2023-05-19T12:08:59.278Z,3.40
2023-05-19T12:12:17.108Z,3.20
2023-05-19T12:15:29.634Z,3.05
2023-05-19T12:18:42.471Z,2.70
2023-05-19T12:21:55.111Z,2.65
2023-05-19T12:25:08.102Z,2.92
2023-05-19T12:28:20.838Z,2.60
2023-05-19T12:31:34.478Z,2.47
2023-05-19T12:34:47.527Z,2.70
2023-05-19T12:38:04.819Z,2.92
2023-05-19T12:41:17.327Z,2.75
2023-05-19T12:44:31.495Z,2.87
2023-05-19T12:47:48.382Z,3.15
2023-05-19T12:51:01.181Z,2.80
2023-05-19T12:54:13.688Z,2.80
2023-05-19T12:57:27.074Z,2.80
2023-05-19T13:00:44.989Z,2.85
2023-05-19T13:03:58.005Z,2.85
2023-05-19T13:07:10.630Z,3.00
2023-05-19T13:10:23.541Z,2.90
2023-05-19T13:13:36.057Z,3.33
2023-05-19T13:16:48.902Z,3.15
2023-05-19T13:20:01.385Z,2.80
2023-05-19T13:23:14.296Z,2.65
2023-05-19T13:26:26.791Z,3.20
2023-05-19T13:29:39.473Z,2.65
2023-05-19T13:32:52.798Z,2.80
2023-05-19T13:36:07.642Z,2.70
2023-05-19T13:39:20.028Z,2.70
2023-05-19T13:42:33.456Z,2.78
2023-05-19T13:45:46.035Z,3.22
2023-05-19T13:48:58.783Z,2.65
2023-05-19T13:52:11.655Z,3.03
2023-05-19T13:55:26.285Z,2.53
2023-05-19T13:58:38.740Z,3.00
2023-05-19T14:01:51.566Z,2.80
2023-05-19T14:05:04.881Z,2.87
2023-05-19T14:08:17.432Z,2.97
2023-05-19T14:11:30.137Z,3.47
2023-05-19T14:14:42.597Z,3.37
2023-05-19T14:17:55.348Z,3.05
2023-05-19T14:21:08.345Z,2.87
2023-05-19T14:24:21.051Z,3.03
2023-05-19T14:27:33.446Z,3.12
2023-05-19T14:30:46.284Z,3.33
2023-05-19T14:33:58.645Z,3.20
2023-05-19T14:37:14.336Z,3.12
2023-05-19T14:40:26.815Z,3.80
2023-05-19T14:43:42.142Z,3.60
2023-05-19T14:46:54.610Z,3.12
2023-05-19T14:50:07.488Z,3.53
2023-05-19T14:53:23.020Z,3.70
2023-05-19T14:56:35.777Z,3.53
2023-05-19T14:59:48.245Z,3.42
2023-05-19T15:03:02.046Z,3.58
2023-05-19T15:06:19.071Z,3.47
2023-05-19T15:09:31.830Z,3.58
2023-05-19T15:12:44.286Z,3.60
2023-05-19T15:16:12.561Z,3.40
2023-05-19T15:19:29.156Z,3.50
2023-05-19T15:22:41.935Z,3.50
2023-05-19T15:25:54.767Z,4.07
2023-05-19T15:29:07.459Z,3.53
2023-05-19T15:32:20.254Z,3.60
2023-05-19T15:35:32.947Z,3.67
2023-05-19T15:38:45.478Z,3.67
2023-05-19T15:41:58.158Z,3.55
2023-05-19T15:45:10.674Z,3.65
2023-05-19T15:48:28.789Z,3.60
2023-05-19T15:51:41.262Z,4.00
2023-05-19T15:54:55.234Z,4.78
2023-05-19T15:58:08.908Z,4.30
2023-05-19T16:01:21.746Z,6.32
2023-05-19T16:04:36.562Z,5.12
2023-05-19T16:07:49.011Z,4.32
2023-05-19T16:11:01.708Z,4.53
2023-05-19T16:14:14.688Z,4.70
2023-05-19T16:17:28.763Z,4.18
2023-05-19T16:20:41.226Z,3.55
2023-05-19T16:23:53.918Z,3.85
2023-05-19T16:27:06.316Z,4.82
2023-05-19T16:30:19.067Z,4.20
2023-05-19T16:33:31.444Z,4.85
2023-05-19T16:36:44.133Z,4.30
2023-05-19T16:39:56.590Z,5.30
2023-05-19T16:43:09.373Z,4.65
2023-05-19T16:46:21.914Z,4.20
2023-05-19T16:49:37.834Z,4.80
2023-05-19T16:52:50.967Z,4.10
2023-05-19T16:56:03.858Z,4.10
2023-05-19T16:59:17.272Z,4.20
2023-05-19T17:02:30.055Z,5.03
2023-05-19T17:05:43.489Z,5.18
2023-05-19T17:08:56.245Z,5.32
2023-05-19T17:12:09.054Z,4.43
2023-05-19T17:15:21.768Z,4.18
2023-05-19T17:18:36.673Z,4.75
2023-05-19T17:21:49.547Z,4.85
2023-05-19T17:25:01.978Z,5.32
2023-05-19T17:28:15.997Z,4.70
2023-05-19T17:31:28.418Z,4.90
2023-05-19T17:34:41.904Z,5.00
2023-05-19T17:37:54.381Z,5.30
2023-05-19T17:41:10.473Z,5.37
2023-05-19T17:44:25.697Z,5.80
2023-05-19T17:47:40.828Z,6.45
2023-05-19T17:50:53.252Z,6.00
2023-05-19T17:54:09.060Z,5.93
2023-05-19T17:57:21.438Z,5.93
2023-05-19T18:00:34.494Z,7.07
2023-05-19T18:03:49.805Z,7.72
2023-05-19T18:07:06.042Z,7.07
2023-05-19T18:10:21.200Z,7.00
2023-05-19T18:13:33.668Z,6.60
2023-05-19T18:16:47.433Z,6.65
2023-05-19T18:19:59.929Z,6.53
2023-05-19T18:23:12.597Z,6.20
2023-05-19T18:26:24.956Z,6.32
2023-05-19T18:29:37.749Z,6.00
2023-05-19T18:32:50.216Z,6.68
2023-05-19T18:36:02.954Z,6.60
2023-05-19T18:39:15.404Z,6.87
2023-05-19T18:42:28.114Z,5.78
2023-05-19T18:45:40.571Z,6.28
2023-05-19T18:48:53.326Z,7.97
2023-05-19T18:52:05.956Z,8.82
2023-05-19T18:55:18.649Z,7.70
2023-05-19T18:58:31.137Z,7.68
2023-05-19T19:01:43.922Z,6.97
2023-05-19T19:04:56.518Z,7.97
2023-05-19T19:08:09.220Z,8.35
2023-05-19T19:11:22.500Z,7.82
2023-05-19T19:14:35.169Z,8.10
2023-05-19T19:17:47.601Z,8.10
2023-05-19T19:21:02.576Z,8.48
2023-05-19T19:24:15.301Z,8.63
2023-05-19T19:27:31.122Z,8.55
2023-05-19T19:30:44.482Z,11.38
2023-05-19T19:33:58.999Z,10.45
2023-05-19T19:37:11.502Z,9.38
2023-05-19T19:40:25.085Z,11.80
2023-05-19T19:43:37.533Z,11.02
2023-05-19T19:46:50.608Z,10.48
2023-05-19T19:50:05.766Z,11.20
2023-05-19T19:53:18.491Z,9.82
2023-05-19T19:56:30.929Z,8.98
2023-05-19T19:59:43.785Z,8.77
2023-05-19T20:03:04.983Z,8.98
2023-05-19T20:06:18.480Z,8.43
2023-05-19T20:09:31.108Z,7.55
2023-05-19T20:12:43.808Z,7.70
2023-05-19T20:15:56.302Z,7.90
2023-05-19T20:19:09.418Z,6.85
2023-05-19T20:22:23.248Z,6.90
2023-05-19T20:25:53.703Z,6.82
2023-05-19T20:29:11.260Z,6.85
2023-05-19T20:32:24.019Z,7.32
2023-05-19T20:35:36.469Z,6.90
2023-05-19T20:38:49.134Z,6.93
2023-05-19T20:42:01.569Z,6.93
2023-05-19T20:45:14.269Z,7.47
2023-05-19T20:48:26.826Z,6.97
2023-05-19T20:51:39.516Z,7.78
2023-05-19T20:54:51.950Z,7.68
2023-05-19T20:58:04.628Z,8.75
2023-05-19T21:01:17.291Z,12.98
2023-05-19T21:04:30.185Z,20.88
2023-05-19T21:07:42.652Z,17.80
2023-05-19T21:10:55.622Z,16.08
2023-05-19T21:14:08.273Z,8.13
2023-05-19T21:17:21.314Z,7.50
2023-05-19T21:20:33.833Z,7.10
2023-05-19T21:23:46.806Z,6.70
2023-05-19T21:26:59.193Z,6.30
2023-05-19T21:30:12.930Z,6.68
2023-05-19T21:33:25.514Z,6.95
2023-05-19T21:36:38.177Z,6.65
2023-05-19T21:39:50.778Z,6.55
2023-05-19T21:43:03.691Z,6.80
2023-05-19T21:46:16.079Z,7.45
2023-05-19T21:49:28.825Z,8.15
2023-05-19T21:52:41.393Z,9.18
2023-05-19T21:55:54.118Z,9.27
2023-05-19T21:59:07.014Z,10.43
2023-05-19T22:02:19.711Z,12.90
2023-05-19T22:05:35.106Z,12.35
2023-05-19T22:08:47.544Z,9.82
2023-05-19T22:12:00.224Z,10.10
2023-05-19T22:15:13.569Z,8.32
2023-05-19T22:18:26.290Z,7.12
2023-05-19T22:21:38.709Z,6.90
2023-05-19T22:24:51.418Z,7.00
2023-05-19T22:28:05.690Z,6.72
2023-05-19T22:31:18.471Z,6.78
2023-05-19T22:34:30.940Z,6.90
2023-05-19T22:37:43.668Z,6.62
2023-05-19T22:40:56.045Z,7.15
2023-05-19T22:44:10.403Z,7.20
2023-05-19T22:47:22.953Z,6.80
2023-05-19T22:50:35.632Z,6.95
2023-05-19T22:53:48.984Z,7.03
2023-05-19T22:57:01.784Z,7.25
2023-05-19T23:00:14.404Z,7.15
2023-05-19T23:03:27.080Z,7.45
2023-05-19T23:06:39.473Z,6.75
2023-05-19T23:09:52.159Z,7.40
2023-05-19T23:13:04.864Z,7.90
2023-05-19T23:16:17.552Z,7.62
2023-05-19T23:19:31.956Z,7.28
2023-05-19T23:22:44.701Z,7.65
2023-05-19T23:25:57.094Z,7.53
2023-05-19T23:29:13.314Z,7.20
2023-05-19T23:32:25.959Z,7.47
2023-05-19T23:35:39.656Z,7.55
2023-05-19T23:38:52.072Z,6.97
2023-05-19T23:42:05.762Z,7.47
2023-05-19T23:45:18.265Z,7.47
2023-05-19T23:48:31.352Z,7.62
2023-05-19T23:51:43.792Z,7.50
2023-05-19T23:54:56.489Z,7.32
2023-05-19T23:58:08.911Z,7.43
